sensor_id;sensor_type;location;lat;lon;timestamp;temperature;humidity
29281;DHT22;25048;49.590;11.026;2023-08-31T00:00:16;13.20;99.90
29281;DHT22;25048;49.590;11.026;2023-08-31T00:02:44;13.20;99.90
29281;DHT22;25048;49.590;11.026;2023-08-31T00:05:11;13.20;99.90
29281;DHT22;25048;49.590;11.026;2023-08-31T00:07:40;13.20;99.90
29281;DHT22;25048;49.590;11.026;2023-08-31T00:10:08;13.20;99.90
29281;DHT22;25048;49.590;11.026;2023-08-31T00:12:37;13.20;99.90
29281;DHT22;25048;49.590;11.026;2023-08-31T00:15:05;13.20;99.90
29281;DHT22;25048;49.590;11.026;2023-08-31T00:17:33;13.20;99.90
29281;DHT22;25048;49.590;11.026;2023-08-31T00:20:00;13.20;99.90
29281;DHT22;25048;49.590;11.026;2023-08-31T00:22:30;13.20;99.90
29281;DHT22;25048;49.590;11.026;2023-08-31T00:24:57;13.20;99.90
29281;DHT22;25048;49.590;11.026;2023-08-31T00:27:25;13.20;99.90
29281;DHT22;25048;49.590;11.026;2023-08-31T00:29:53;13.20;99.90
29281;DHT22;25048;49.590;11.026;2023-08-31T00:32:22;13.20;99.90
29281;DHT22;25048;49.590;11.026;2023-08-31T00:34:50;13.20;99.90
29281;DHT22;25048;49.590;11.026;2023-08-31T00:37:18;13.20;99.90
29281;DHT22;25048;49.590;11.026;2023-08-31T00:39:47;13.20;99.90
29281;DHT22;25048;49.590;11.026;2023-08-31T00:42:16;13.10;99.90
29281;DHT22;25048;49.590;11.026;2023-08-31T00:44:44;13.10;99.90
29281;DHT22;25048;49.590;11.026;2023-08-31T00:47:14;13.10;99.90
29281;DHT22;25048;49.590;11.026;2023-08-31T00:49:41;13.10;99.90
29281;DHT22;25048;49.590;11.026;2023-08-31T00:52:09;13.10;99.90
29281;DHT22;25048;49.590;11.026;2023-08-31T00:54:37;13.20;99.90
29281;DHT22;25048;49.590;11.026;2023-08-31T00:57:05;13.20;99.90
29281;DHT22;25048;49.590;11.026;2023-08-31T00:59:32;13.20;99.90
29281;DHT22;25048;49.590;11.026;2023-08-31T01:05:13;13.20;99.90
29281;DHT22;25048;49.590;11.026;2023-08-31T01:07:57;13.30;99.90
29281;DHT22;25048;49.590;11.026;2023-08-31T01:13:15;13.30;99.90
29281;DHT22;25048;49.590;11.026;2023-08-31T01:15:46;13.30;99.90
29281;DHT22;25048;49.590;11.026;2023-08-31T01:18:17;13.30;99.90
29281;DHT22;25048;49.590;11.026;2023-08-31T01:23:29;13.30;99.90
29281;DHT22;25048;49.590;11.026;2023-08-31T01:25:55;13.30;99.90
29281;DHT22;25048;49.590;11.026;2023-08-31T01:28:23;13.30;99.90
29281;DHT22;25048;49.590;11.026;2023-08-31T01:30:50;13.30;99.90
29281;DHT22;25048;49.590;11.026;2023-08-31T01:33:18;13.30;99.90
29281;DHT22;25048;49.590;11.026;2023-08-31T01:35:48;13.30;99.90
29281;DHT22;25048;49.590;11.026;2023-08-31T01:38:18;13.40;99.90
29281;DHT22;25048;49.590;11.026;2023-08-31T01:40:51;13.30;99.90
29281;DHT22;25048;49.590;11.026;2023-08-31T01:43:18;13.40;99.90
29281;DHT22;25048;49.590;11.026;2023-08-31T01:45:47;13.30;99.90
29281;DHT22;25048;49.590;11.026;2023-08-31T01:48:15;13.40;99.90
29281;DHT22;25048;49.590;11.026;2023-08-31T01:50:42;13.30;99.90
29281;DHT22;25048;49.590;11.026;2023-08-31T01:53:10;13.30;99.90
29281;DHT22;25048;49.590;11.026;2023-08-31T01:55:39;13.30;99.90
29281;DHT22;25048;49.590;11.026;2023-08-31T01:58:06;13.30;99.90
29281;DHT22;25048;49.590;11.026;2023-08-31T02:00:33;13.30;99.90
29281;DHT22;25048;49.590;11.026;2023-08-31T02:03:02;13.30;99.90
29281;DHT22;25048;49.590;11.026;2023-08-31T02:05:29;13.30;99.90
29281;DHT22;25048;49.590;11.026;2023-08-31T02:07:57;13.30;99.90
29281;DHT22;25048;49.590;11.026;2023-08-31T02:10:24;13.30;99.90
29281;DHT22;25048;49.590;11.026;2023-08-31T02:12:53;13.30;99.90
29281;DHT22;25048;49.590;11.026;2023-08-31T02:15:21;13.30;99.90
29281;DHT22;25048;49.590;11.026;2023-08-31T02:17:49;13.30;99.90
29281;DHT22;25048;49.590;11.026;2023-08-31T02:20:16;13.30;99.90
29281;DHT22;25048;49.590;11.026;2023-08-31T02:22:44;13.30;99.90
29281;DHT22;25048;49.590;11.026;2023-08-31T02:25:11;13.20;99.90
29281;DHT22;25048;49.590;11.026;2023-08-31T02:27:40;13.20;99.90
29281;DHT22;25048;49.590;11.026;2023-08-31T02:30:08;13.20;99.90
29281;DHT22;25048;49.590;11.026;2023-08-31T02:32:35;13.20;99.90
29281;DHT22;25048;49.590;11.026;2023-08-31T02:35:03;13.20;99.90
29281;DHT22;25048;49.590;11.026;2023-08-31T02:37:31;13.20;99.90
29281;DHT22;25048;49.590;11.026;2023-08-31T02:39:58;13.20;99.90
29281;DHT22;25048;49.590;11.026;2023-08-31T02:42:26;13.20;99.90
29281;DHT22;25048;49.590;11.026;2023-08-31T02:44:53;13.10;99.90
29281;DHT22;25048;49.590;11.026;2023-08-31T02:47:21;13.10;99.90
29281;DHT22;25048;49.590;11.026;2023-08-31T02:49:48;13.10;99.90
29281;DHT22;25048;49.590;11.026;2023-08-31T02:52:16;13.00;99.90
29281;DHT22;25048;49.590;11.026;2023-08-31T02:54:43;13.00;99.90
29281;DHT22;25048;49.590;11.026;2023-08-31T02:57:11;13.00;99.90
29281;DHT22;25048;49.590;11.026;2023-08-31T02:59:38;12.90;99.90
29281;DHT22;25048;49.590;11.026;2023-08-31T03:02:06;12.90;99.90
29281;DHT22;25048;49.590;11.026;2023-08-31T03:04:34;12.90;99.90
29281;DHT22;25048;49.590;11.026;2023-08-31T03:07:04;12.80;99.90
29281;DHT22;25048;49.590;11.026;2023-08-31T03:09:31;12.80;99.90
29281;DHT22;25048;49.590;11.026;2023-08-31T03:11:59;12.80;99.90
29281;DHT22;25048;49.590;11.026;2023-08-31T03:14:26;12.80;99.90
29281;DHT22;25048;49.590;11.026;2023-08-31T03:16:54;12.70;99.90
29281;DHT22;25048;49.590;11.026;2023-08-31T03:19:21;12.70;99.90
29281;DHT22;25048;49.590;11.026;2023-08-31T03:21:50;12.70;99.90
29281;DHT22;25048;49.590;11.026;2023-08-31T03:24:17;12.70;99.90
29281;DHT22;25048;49.590;11.026;2023-08-31T03:26:45;12.60;99.90
29281;DHT22;25048;49.590;11.026;2023-08-31T03:29:12;12.60;99.90
29281;DHT22;25048;49.590;11.026;2023-08-31T03:31:40;12.60;99.90
29281;DHT22;25048;49.590;11.026;2023-08-31T03:34:07;12.60;99.90
29281;DHT22;25048;49.590;11.026;2023-08-31T03:36:35;12.50;99.90
29281;DHT22;25048;49.590;11.026;2023-08-31T03:39:03;12.50;99.90
29281;DHT22;25048;49.590;11.026;2023-08-31T03:41:31;12.50;99.90
29281;DHT22;25048;49.590;11.026;2023-08-31T03:43:58;12.50;99.90
29281;DHT22;25048;49.590;11.026;2023-08-31T03:46:26;12.40;99.90
29281;DHT22;25048;49.590;11.026;2023-08-31T03:48:53;12.40;99.90
29281;DHT22;25048;49.590;11.026;2023-08-31T03:51:21;12.40;99.90
29281;DHT22;25048;49.590;11.026;2023-08-31T03:53:48;12.30;99.90
29281;DHT22;25048;49.590;11.026;2023-08-31T03:56:16;12.30;99.90
29281;DHT22;25048;49.590;11.026;2023-08-31T03:58:44;12.30;99.90
29281;DHT22;25048;49.590;11.026;2023-08-31T04:01:11;12.30;99.90
29281;DHT22;25048;49.590;11.026;2023-08-31T04:03:42;12.30;99.90
29281;DHT22;25048;49.590;11.026;2023-08-31T04:06:09;12.30;99.90
29281;DHT22;25048;49.590;11.026;2023-08-31T04:08:37;12.20;99.90
29281;DHT22;25048;49.590;11.026;2023-08-31T04:11:04;12.20;99.90
29281;DHT22;25048;49.590;11.026;2023-08-31T04:13:32;12.10;99.90
29281;DHT22;25048;49.590;11.026;2023-08-31T04:15:59;12.10;99.90
29281;DHT22;25048;49.590;11.026;2023-08-31T04:18:27;12.10;99.90
29281;DHT22;25048;49.590;11.026;2023-08-31T04:20:54;12.10;99.90
29281;DHT22;25048;49.590;11.026;2023-08-31T04:23:22;12.10;99.90
29281;DHT22;25048;49.590;11.026;2023-08-31T04:25:50;12.00;99.90
29281;DHT22;25048;49.590;11.026;2023-08-31T04:28:20;12.00;99.90
29281;DHT22;25048;49.590;11.026;2023-08-31T04:30:47;12.00;99.90
29281;DHT22;25048;49.590;11.026;2023-08-31T04:33:16;12.00;99.90
29281;DHT22;25048;49.590;11.026;2023-08-31T04:35:43;12.00;99.90
29281;DHT22;25048;49.590;11.026;2023-08-31T04:38:11;11.90;99.90
29281;DHT22;25048;49.590;11.026;2023-08-31T04:40:38;11.90;99.90
29281;DHT22;25048;49.590;11.026;2023-08-31T04:43:06;11.90;99.90
29281;DHT22;25048;49.590;11.026;2023-08-31T04:45:33;11.90;99.90
29281;DHT22;25048;49.590;11.026;2023-08-31T04:48:01;11.90;99.90
29281;DHT22;25048;49.590;11.026;2023-08-31T04:50:29;12.00;99.90
29281;DHT22;25048;49.590;11.026;2023-08-31T04:52:57;12.00;99.90
29281;DHT22;25048;49.590;11.026;2023-08-31T04:55:24;12.00;99.90
29281;DHT22;25048;49.590;11.026;2023-08-31T04:57:52;12.00;99.90
29281;DHT22;25048;49.590;11.026;2023-08-31T05:00:19;12.00;99.90
29281;DHT22;25048;49.590;11.026;2023-08-31T05:02:47;12.00;99.90
29281;DHT22;25048;49.590;11.026;2023-08-31T05:05:14;12.00;99.90
29281;DHT22;25048;49.590;11.026;2023-08-31T05:07:42;12.10;99.90
29281;DHT22;25048;49.590;11.026;2023-08-31T05:10:10;12.10;99.90
29281;DHT22;25048;49.590;11.026;2023-08-31T05:12:37;12.10;99.90
29281;DHT22;25048;49.590;11.026;2023-08-31T05:15:05;12.20;99.90
29281;DHT22;25048;49.590;11.026;2023-08-31T05:17:33;12.20;99.90
29281;DHT22;25048;49.590;11.026;2023-08-31T05:20:00;12.30;99.90
29281;DHT22;25048;49.590;11.026;2023-08-31T05:22:30;12.30;99.90
29281;DHT22;25048;49.590;11.026;2023-08-31T05:24:57;12.30;99.90
29281;DHT22;25048;49.590;11.026;2023-08-31T05:27:25;12.30;99.90
29281;DHT22;25048;49.590;11.026;2023-08-31T05:29:52;12.40;99.90
29281;DHT22;25048;49.590;11.026;2023-08-31T05:32:20;12.40;99.90
29281;DHT22;25048;49.590;11.026;2023-08-31T05:34:47;12.50;99.90
29281;DHT22;25048;49.590;11.026;2023-08-31T05:37:15;12.50;99.90
29281;DHT22;25048;49.590;11.026;2023-08-31T05:39:42;12.50;99.90
29281;DHT22;25048;49.590;11.026;2023-08-31T05:42:13;12.50;99.90
29281;DHT22;25048;49.590;11.026;2023-08-31T05:44:40;12.50;99.90
29281;DHT22;25048;49.590;11.026;2023-08-31T05:47:08;12.50;99.90
29281;DHT22;25048;49.590;11.026;2023-08-31T05:49:35;12.40;99.90
29281;DHT22;25048;49.590;11.026;2023-08-31T05:52:03;12.40;99.90
29281;DHT22;25048;49.590;11.026;2023-08-31T05:54:30;12.40;99.90
29281;DHT22;25048;49.590;11.026;2023-08-31T05:56:58;12.40;99.90
29281;DHT22;25048;49.590;11.026;2023-08-31T05:59:25;12.30;99.90
29281;DHT22;25048;49.590;11.026;2023-08-31T06:01:53;12.40;99.90
29281;DHT22;25048;49.590;11.026;2023-08-31T06:04:20;12.40;99.90
29281;DHT22;25048;49.590;11.026;2023-08-31T06:06:48;12.50;99.90
29281;DHT22;25048;49.590;11.026;2023-08-31T06:09:17;12.60;99.90
29281;DHT22;25048;49.590;11.026;2023-08-31T06:11:45;12.80;99.90
29281;DHT22;25048;49.590;11.026;2023-08-31T06:14:12;12.90;99.90
29281;DHT22;25048;49.590;11.026;2023-08-31T06:16:39;13.00;99.90
29281;DHT22;25048;49.590;11.026;2023-08-31T06:19:07;13.10;99.90
29281;DHT22;25048;49.590;11.026;2023-08-31T06:21:34;13.20;99.90
29281;DHT22;25048;49.590;11.026;2023-08-31T06:24:02;13.30;99.90
29281;DHT22;25048;49.590;11.026;2023-08-31T06:26:31;13.30;99.90
29281;DHT22;25048;49.590;11.026;2023-08-31T06:28:59;13.40;99.90
29281;DHT22;25048;49.590;11.026;2023-08-31T06:31:27;13.40;99.90
29281;DHT22;25048;49.590;11.026;2023-08-31T06:33:54;13.50;99.90
29281;DHT22;25048;49.590;11.026;2023-08-31T06:36:23;13.60;99.90
29281;DHT22;25048;49.590;11.026;2023-08-31T06:38:50;13.60;99.90
29281;DHT22;25048;49.590;11.026;2023-08-31T06:41:18;13.70;99.90
29281;DHT22;25048;49.590;11.026;2023-08-31T06:43:45;13.80;99.90
29281;DHT22;25048;49.590;11.026;2023-08-31T06:46:13;13.80;99.90
29281;DHT22;25048;49.590;11.026;2023-08-31T06:48:40;13.90;99.90
29281;DHT22;25048;49.590;11.026;2023-08-31T06:51:08;14.00;99.90
29281;DHT22;25048;49.590;11.026;2023-08-31T06:53:35;14.10;99.90
29281;DHT22;25048;49.590;11.026;2023-08-31T06:56:03;14.10;99.90
29281;DHT22;25048;49.590;11.026;2023-08-31T06:58:31;14.20;99.90
29281;DHT22;25048;49.590;11.026;2023-08-31T07:00:58;14.30;99.90
29281;DHT22;25048;49.590;11.026;2023-08-31T07:03:26;14.40;99.90
29281;DHT22;25048;49.590;11.026;2023-08-31T07:05:54;14.50;99.90
29281;DHT22;25048;49.590;11.026;2023-08-31T07:08:21;14.60;99.90
29281;DHT22;25048;49.590;11.026;2023-08-31T07:10:50;14.70;99.90
29281;DHT22;25048;49.590;11.026;2023-08-31T07:13:18;14.70;99.90
29281;DHT22;25048;49.590;11.026;2023-08-31T07:15:46;14.70;99.90
29281;DHT22;25048;49.590;11.026;2023-08-31T07:18:15;14.70;99.90
29281;DHT22;25048;49.590;11.026;2023-08-31T07:20:45;14.70;99.90
29281;DHT22;25048;49.590;11.026;2023-08-31T07:23:11;14.90;99.90
29281;DHT22;25048;49.590;11.026;2023-08-31T07:25:39;14.90;99.90
29281;DHT22;25048;49.590;11.026;2023-08-31T07:28:06;15.00;99.90
29281;DHT22;25048;49.590;11.026;2023-08-31T07:30:34;15.00;99.90
29281;DHT22;25048;49.590;11.026;2023-08-31T07:33:01;15.10;99.90
29281;DHT22;25048;49.590;11.026;2023-08-31T07:35:30;15.20;99.90
29281;DHT22;25048;49.590;11.026;2023-08-31T07:37:58;15.20;99.90
29281;DHT22;25048;49.590;11.026;2023-08-31T07:40:25;15.30;99.90
29281;DHT22;25048;49.590;11.026;2023-08-31T07:42:53;15.30;99.90
29281;DHT22;25048;49.590;11.026;2023-08-31T07:45:20;15.40;99.90
29281;DHT22;25048;49.590;11.026;2023-08-31T07:47:47;15.60;99.90
29281;DHT22;25048;49.590;11.026;2023-08-31T07:50:15;15.70;99.90
29281;DHT22;25048;49.590;11.026;2023-08-31T07:52:42;15.80;99.90
29281;DHT22;25048;49.590;11.026;2023-08-31T07:55:10;15.90;99.90
29281;DHT22;25048;49.590;11.026;2023-08-31T07:57:37;15.80;99.90
29281;DHT22;25048;49.590;11.026;2023-08-31T08:00:06;15.80;99.90
29281;DHT22;25048;49.590;11.026;2023-08-31T08:02:33;15.80;99.90
29281;DHT22;25048;49.590;11.026;2023-08-31T08:05:01;15.80;99.90
29281;DHT22;25048;49.590;11.026;2023-08-31T08:07:29;15.80;99.90
29281;DHT22;25048;49.590;11.026;2023-08-31T08:09:56;15.80;99.90
29281;DHT22;25048;49.590;11.026;2023-08-31T08:12:25;15.80;99.90
29281;DHT22;25048;49.590;11.026;2023-08-31T08:14:52;15.80;99.90
29281;DHT22;25048;49.590;11.026;2023-08-31T08:17:20;15.80;99.90
29281;DHT22;25048;49.590;11.026;2023-08-31T08:19:47;15.90;99.90
29281;DHT22;25048;49.590;11.026;2023-08-31T08:22:15;16.10;99.90
29281;DHT22;25048;49.590;11.026;2023-08-31T08:24:42;16.20;99.90
29281;DHT22;25048;49.590;11.026;2023-08-31T08:27:10;16.20;99.90
29281;DHT22;25048;49.590;11.026;2023-08-31T08:29:37;16.30;99.90
29281;DHT22;25048;49.590;11.026;2023-08-31T08:32:05;16.20;99.90
29281;DHT22;25048;49.590;11.026;2023-08-31T08:34:33;16.20;99.90
29281;DHT22;25048;49.590;11.026;2023-08-31T08:37:00;16.40;99.90
29281;DHT22;25048;49.590;11.026;2023-08-31T08:39:30;16.70;99.90
29281;DHT22;25048;49.590;11.026;2023-08-31T08:41:59;17.00;99.90
29281;DHT22;25048;49.590;11.026;2023-08-31T08:44:30;17.20;99.90
29281;DHT22;25048;49.590;11.026;2023-08-31T08:46:59;17.40;99.90
29281;DHT22;25048;49.590;11.026;2023-08-31T08:49:33;17.50;99.90
29281;DHT22;25048;49.590;11.026;2023-08-31T08:52:03;17.50;99.90
29281;DHT22;25048;49.590;11.026;2023-08-31T08:54:30;17.40;99.90
29281;DHT22;25048;49.590;11.026;2023-08-31T08:56:58;17.20;99.90
29281;DHT22;25048;49.590;11.026;2023-08-31T08:59:27;17.00;99.90
29281;DHT22;25048;49.590;11.026;2023-08-31T09:01:54;17.00;99.90
29281;DHT22;25048;49.590;11.026;2023-08-31T09:04:22;16.90;99.90
29281;DHT22;25048;49.590;11.026;2023-08-31T09:06:53;17.10;99.90
29281;DHT22;25048;49.590;11.026;2023-08-31T09:09:20;17.10;99.90
29281;DHT22;25048;49.590;11.026;2023-08-31T09:11:49;17.10;99.90
29281;DHT22;25048;49.590;11.026;2023-08-31T09:14:18;17.00;99.90
29281;DHT22;25048;49.590;11.026;2023-08-31T09:16:50;17.00;99.90
29281;DHT22;25048;49.590;11.026;2023-08-31T09:21:55;16.80;99.90
29281;DHT22;25048;49.590;11.026;2023-08-31T09:24:21;16.80;99.90
29281;DHT22;25048;49.590;11.026;2023-08-31T09:26:55;16.90;99.90
29281;DHT22;25048;49.590;11.026;2023-08-31T09:29:23;17.00;99.90
29281;DHT22;25048;49.590;11.026;2023-08-31T09:31:50;17.10;99.90
29281;DHT22;25048;49.590;11.026;2023-08-31T09:34:18;17.20;99.90
29281;DHT22;25048;49.590;11.026;2023-08-31T09:36:46;17.10;99.90
29281;DHT22;25048;49.590;11.026;2023-08-31T09:39:15;17.00;99.90
29281;DHT22;25048;49.590;11.026;2023-08-31T09:41:55;16.90;99.90
29281;DHT22;25048;49.590;11.026;2023-08-31T09:44:23;16.80;99.90
29281;DHT22;25048;49.590;11.026;2023-08-31T09:46:50;16.70;99.90
29281;DHT22;25048;49.590;11.026;2023-08-31T09:49:21;16.80;99.90
29281;DHT22;25048;49.590;11.026;2023-08-31T09:51:50;16.80;99.90
29281;DHT22;25048;49.590;11.026;2023-08-31T09:54:19;16.90;99.90
29281;DHT22;25048;49.590;11.026;2023-08-31T09:56:48;16.90;99.90
29281;DHT22;25048;49.590;11.026;2023-08-31T09:59:16;17.00;99.90
29281;DHT22;25048;49.590;11.026;2023-08-31T10:01:45;17.10;99.90
29281;DHT22;25048;49.590;11.026;2023-08-31T10:04:13;17.40;99.90
29281;DHT22;25048;49.590;11.026;2023-08-31T10:06:42;17.60;99.90
29281;DHT22;25048;49.590;11.026;2023-08-31T10:09:10;17.60;99.90
29281;DHT22;25048;49.590;11.026;2023-08-31T10:11:41;17.60;99.90
29281;DHT22;25048;49.590;11.026;2023-08-31T10:14:12;17.60;99.90
29281;DHT22;25048;49.590;11.026;2023-08-31T10:16:42;17.60;99.90
29281;DHT22;25048;49.590;11.026;2023-08-31T10:19:10;17.80;99.90
29281;DHT22;25048;49.590;11.026;2023-08-31T10:21:39;17.80;99.90
29281;DHT22;25048;49.590;11.026;2023-08-31T10:24:07;18.10;99.90
29281;DHT22;25048;49.590;11.026;2023-08-31T10:26:35;18.20;99.90
29281;DHT22;25048;49.590;11.026;2023-08-31T10:29:03;18.10;99.90
29281;DHT22;25048;49.590;11.026;2023-08-31T10:31:33;18.00;99.90
29281;DHT22;25048;49.590;11.026;2023-08-31T10:34:05;17.90;99.90
29281;DHT22;25048;49.590;11.026;2023-08-31T10:36:39;17.80;99.90
29281;DHT22;25048;49.590;11.026;2023-08-31T10:39:15;18.00;99.90
29281;DHT22;25048;49.590;11.026;2023-08-31T10:41:53;18.00;99.90
29281;DHT22;25048;49.590;11.026;2023-08-31T10:46:49;17.90;99.90
29281;DHT22;25048;49.590;11.026;2023-08-31T10:49:18;17.80;99.90
29281;DHT22;25048;49.590;11.026;2023-08-31T10:51:49;17.70;99.90
29281;DHT22;25048;49.590;11.026;2023-08-31T10:54:30;17.60;99.90
29281;DHT22;25048;49.590;11.026;2023-08-31T10:59:51;17.50;99.90
29281;DHT22;25048;49.590;11.026;2023-08-31T11:05:06;17.70;99.90
29281;DHT22;25048;49.590;11.026;2023-08-31T11:07:34;17.90;99.90
29281;DHT22;25048;49.590;11.026;2023-08-31T11:10:19;18.00;99.90
29281;DHT22;25048;49.590;11.026;2023-08-31T11:12:48;18.00;99.90
29281;DHT22;25048;49.590;11.026;2023-08-31T11:15:18;18.00;99.90
29281;DHT22;25048;49.590;11.026;2023-08-31T11:17:48;18.00;99.90
29281;DHT22;25048;49.590;11.026;2023-08-31T11:20:18;17.90;99.90
29281;DHT22;25048;49.590;11.026;2023-08-31T11:22:50;17.80;99.90
29281;DHT22;25048;49.590;11.026;2023-08-31T11:25:21;17.70;99.90
29281;DHT22;25048;49.590;11.026;2023-08-31T11:27:59;17.60;99.90
29281;DHT22;25048;49.590;11.026;2023-08-31T11:30:28;17.60;99.90
29281;DHT22;25048;49.590;11.026;2023-08-31T11:33:03;17.60;99.90
29281;DHT22;25048;49.590;11.026;2023-08-31T11:35:34;17.70;99.90
29281;DHT22;25048;49.590;11.026;2023-08-31T11:38:03;17.70;99.90
29281;DHT22;25048;49.590;11.026;2023-08-31T11:40:31;17.80;99.90
29281;DHT22;25048;49.590;11.026;2023-08-31T11:42:59;17.90;99.90
29281;DHT22;25048;49.590;11.026;2023-08-31T11:45:27;18.00;99.90
29281;DHT22;25048;49.590;11.026;2023-08-31T11:47:56;18.00;99.90
29281;DHT22;25048;49.590;11.026;2023-08-31T11:50:24;18.00;99.90
29281;DHT22;25048;49.590;11.026;2023-08-31T11:52:53;18.10;99.90
29281;DHT22;25048;49.590;11.026;2023-08-31T11:55:22;18.20;99.90
29281;DHT22;25048;49.590;11.026;2023-08-31T11:57:54;18.20;99.90
29281;DHT22;25048;49.590;11.026;2023-08-31T12:00:23;18.30;99.90
29281;DHT22;25048;49.590;11.026;2023-08-31T12:02:58;18.40;99.90
29281;DHT22;25048;49.590;11.026;2023-08-31T12:05:27;18.50;99.90
29281;DHT22;25048;49.590;11.026;2023-08-31T12:07:55;18.60;99.90
29281;DHT22;25048;49.590;11.026;2023-08-31T12:10:25;18.70;99.90
29281;DHT22;25048;49.590;11.026;2023-08-31T12:12:52;18.70;99.90
29281;DHT22;25048;49.590;11.026;2023-08-31T12:15:22;18.60;99.90
29281;DHT22;25048;49.590;11.026;2023-08-31T12:17:49;18.50;99.90
29281;DHT22;25048;49.590;11.026;2023-08-31T12:20:25;18.50;99.90
29281;DHT22;25048;49.590;11.026;2023-08-31T12:22:53;18.50;99.90
29281;DHT22;25048;49.590;11.026;2023-08-31T12:25:22;18.70;99.90
29281;DHT22;25048;49.590;11.026;2023-08-31T12:27:50;18.90;99.90
29281;DHT22;25048;49.590;11.026;2023-08-31T12:30:17;19.10;99.90
29281;DHT22;25048;49.590;11.026;2023-08-31T12:32:45;19.40;99.90
29281;DHT22;25048;49.590;11.026;2023-08-31T12:35:13;19.50;99.90
29281;DHT22;25048;49.590;11.026;2023-08-31T12:37:41;19.50;99.90
29281;DHT22;25048;49.590;11.026;2023-08-31T12:40:08;19.50;99.90
29281;DHT22;25048;49.590;11.026;2023-08-31T12:42:36;19.40;99.90
29281;DHT22;25048;49.590;11.026;2023-08-31T12:45:04;19.30;99.90
29281;DHT22;25048;49.590;11.026;2023-08-31T12:47:32;19.20;99.90
29281;DHT22;25048;49.590;11.026;2023-08-31T12:49:59;19.00;99.90
29281;DHT22;25048;49.590;11.026;2023-08-31T12:52:29;18.90;99.90
29281;DHT22;25048;49.590;11.026;2023-08-31T12:54:57;18.80;99.90
29281;DHT22;25048;49.590;11.026;2023-08-31T12:57:24;18.70;99.90
29281;DHT22;25048;49.590;11.026;2023-08-31T12:59:53;18.60;99.90
29281;DHT22;25048;49.590;11.026;2023-08-31T13:02:20;18.50;99.90
29281;DHT22;25048;49.590;11.026;2023-08-31T13:04:49;18.40;99.90
29281;DHT22;25048;49.590;11.026;2023-08-31T13:07:17;18.60;99.90
29281;DHT22;25048;49.590;11.026;2023-08-31T13:09:44;18.80;99.90
29281;DHT22;25048;49.590;11.026;2023-08-31T13:12:12;19.00;99.90
29281;DHT22;25048;49.590;11.026;2023-08-31T13:14:40;19.10;99.90
29281;DHT22;25048;49.590;11.026;2023-08-31T13:17:08;19.40;99.90
29281;DHT22;25048;49.590;11.026;2023-08-31T13:19:36;19.50;99.90
29281;DHT22;25048;49.590;11.026;2023-08-31T13:22:04;19.70;99.90
29281;DHT22;25048;49.590;11.026;2023-08-31T13:24:31;19.80;99.90
29281;DHT22;25048;49.590;11.026;2023-08-31T13:26:59;19.90;99.90
29281;DHT22;25048;49.590;11.026;2023-08-31T13:29:26;20.40;99.90
29281;DHT22;25048;49.590;11.026;2023-08-31T13:31:54;20.80;99.90
29281;DHT22;25048;49.590;11.026;2023-08-31T13:34:21;21.30;99.90
29281;DHT22;25048;49.590;11.026;2023-08-31T13:36:49;21.60;99.90
29281;DHT22;25048;49.590;11.026;2023-08-31T13:39:16;21.70;99.90
29281;DHT22;25048;49.590;11.026;2023-08-31T13:41:44;21.80;99.90
29281;DHT22;25048;49.590;11.026;2023-08-31T13:44:12;22.20;99.90
29281;DHT22;25048;49.590;11.026;2023-08-31T13:46:40;22.60;99.90
29281;DHT22;25048;49.590;11.026;2023-08-31T13:49:07;22.90;99.90
29281;DHT22;25048;49.590;11.026;2023-08-31T13:51:35;23.20;99.90
29281;DHT22;25048;49.590;11.026;2023-08-31T13:54:03;23.50;99.90
29281;DHT22;25048;49.590;11.026;2023-08-31T13:56:30;23.60;99.90
29281;DHT22;25048;49.590;11.026;2023-08-31T13:58:58;23.40;99.90
29281;DHT22;25048;49.590;11.026;2023-08-31T14:01:26;23.00;99.90
29281;DHT22;25048;49.590;11.026;2023-08-31T14:03:54;22.60;99.90
29281;DHT22;25048;49.590;11.026;2023-08-31T14:06:21;22.40;99.90
29281;DHT22;25048;49.590;11.026;2023-08-31T14:08:49;22.60;99.90
29281;DHT22;25048;49.590;11.026;2023-08-31T14:11:16;22.70;99.90
29281;DHT22;25048;49.590;11.026;2023-08-31T14:13:44;22.80;99.90
29281;DHT22;25048;49.590;11.026;2023-08-31T14:16:13;22.80;99.90
29281;DHT22;25048;49.590;11.026;2023-08-31T14:18:40;22.80;99.90
29281;DHT22;25048;49.590;11.026;2023-08-31T14:21:14;22.80;99.90
29281;DHT22;25048;49.590;11.026;2023-08-31T14:23:38;22.70;99.90
29281;DHT22;25048;49.590;11.026;2023-08-31T14:26:06;22.40;99.90
29281;DHT22;25048;49.590;11.026;2023-08-31T14:28:35;22.00;99.90
29281;DHT22;25048;49.590;11.026;2023-08-31T14:31:06;21.90;99.90
29281;DHT22;25048;49.590;11.026;2023-08-31T14:33:35;21.90;99.90
29281;DHT22;25048;49.590;11.026;2023-08-31T14:36:03;21.90;99.90
29281;DHT22;25048;49.590;11.026;2023-08-31T14:38:30;22.10;99.90
29281;DHT22;25048;49.590;11.026;2023-08-31T14:40:58;22.30;99.80
29281;DHT22;25048;49.590;11.026;2023-08-31T14:43:26;22.20;99.90
29281;DHT22;25048;49.590;11.026;2023-08-31T14:45:53;22.40;99.90
29281;DHT22;25048;49.590;11.026;2023-08-31T14:48:21;22.60;99.40
29281;DHT22;25048;49.590;11.026;2023-08-31T14:50:50;22.90;99.90
29281;DHT22;25048;49.590;11.026;2023-08-31T14:53:17;23.20;99.90
29281;DHT22;25048;49.590;11.026;2023-08-31T14:55:49;23.00;99.90
29281;DHT22;25048;49.590;11.026;2023-08-31T14:58:17;22.90;99.20
29281;DHT22;25048;49.590;11.026;2023-08-31T15:00:45;22.90;99.00
29281;DHT22;25048;49.590;11.026;2023-08-31T15:03:12;22.90;99.40
29281;DHT22;25048;49.590;11.026;2023-08-31T15:05:40;22.80;98.60
29281;DHT22;25048;49.590;11.026;2023-08-31T15:08:08;22.50;99.60
29281;DHT22;25048;49.590;11.026;2023-08-31T15:10:38;22.50;99.90
29281;DHT22;25048;49.590;11.026;2023-08-31T15:13:06;22.50;99.90
29281;DHT22;25048;49.590;11.026;2023-08-31T15:15:33;22.40;99.90
29281;DHT22;25048;49.590;11.026;2023-08-31T15:18:01;22.50;99.60
29281;DHT22;25048;49.590;11.026;2023-08-31T15:20:29;22.60;99.90
29281;DHT22;25048;49.590;11.026;2023-08-31T15:22:56;22.50;99.90
29281;DHT22;25048;49.590;11.026;2023-08-31T15:25:24;22.30;99.90
29281;DHT22;25048;49.590;11.026;2023-08-31T15:27:51;22.40;99.70
29281;DHT22;25048;49.590;11.026;2023-08-31T15:30:19;22.50;99.90
29281;DHT22;25048;49.590;11.026;2023-08-31T15:32:47;22.60;98.40
29281;DHT22;25048;49.590;11.026;2023-08-31T15:35:14;22.70;98.10
29281;DHT22;25048;49.590;11.026;2023-08-31T15:37:42;22.60;97.60
29281;DHT22;25048;49.590;11.026;2023-08-31T15:40:12;22.40;98.30